sensor_id;sensor_type;location;lat;lon;timestamp;P1;durP1;ratioP1;P2;durP2;ratioP2
21101;SDS011;10709;49.006;12.100;2023-09-19T00:00:41;4.93;;;3.22;;
21101;SDS011;10709;49.006;12.100;2023-09-19T00:03:08;3.83;;;3.00;;
21101;SDS011;10709;49.006;12.100;2023-09-19T00:05:37;4.45;;;3.28;;
21101;SDS011;10709;49.006;12.100;2023-09-19T00:08:05;3.92;;;3.05;;
21101;SDS011;10709;49.006;12.100;2023-09-19T00:10:32;5.47;;;3.60;;
21101;SDS011;10709;49.006;12.100;2023-09-19T00:13:03;4.43;;;3.70;;
21101;SDS011;10709;49.006;12.100;2023-09-19T00:15:37;4.25;;;3.72;;
21101;SDS011;10709;49.006;12.100;2023-09-19T00:18:05;4.18;;;3.70;;
21101;SDS011;10709;49.006;12.100;2023-09-19T00:20:35;6.32;;;3.72;;
21101;SDS011;10709;49.006;12.100;2023-09-19T00:23:03;4.88;;;3.58;;
21101;SDS011;10709;49.006;12.100;2023-09-19T00:25:30;4.45;;;3.80;;
21101;SDS011;10709;49.006;12.100;2023-09-19T00:27:58;5.78;;;3.75;;
21101;SDS011;10709;49.006;12.100;2023-09-19T00:30:25;4.30;;;3.75;;
21101;SDS011;10709;49.006;12.100;2023-09-19T00:32:51;5.80;;;4.25;;
21101;SDS011;10709;49.006;12.100;2023-09-19T00:35:19;4.43;;;4.03;;
21101;SDS011;10709;49.006;12.100;2023-09-19T00:37:45;5.40;;;3.60;;
21101;SDS011;10709;49.006;12.100;2023-09-19T00:40:12;6.05;;;3.80;;
21101;SDS011;10709;49.006;12.100;2023-09-19T00:42:39;5.82;;;4.13;;
21101;SDS011;10709;49.006;12.100;2023-09-19T00:45:07;5.65;;;3.88;;
21101;SDS011;10709;49.006;12.100;2023-09-19T00:47:36;4.70;;;3.58;;
21101;SDS011;10709;49.006;12.100;2023-09-19T00:50:04;4.55;;;3.42;;
21101;SDS011;10709;49.006;12.100;2023-09-19T00:52:36;4.22;;;3.40;;
21101;SDS011;10709;49.006;12.100;2023-09-19T00:55:05;4.45;;;3.13;;
21101;SDS011;10709;49.006;12.100;2023-09-19T00:57:33;4.97;;;3.17;;
21101;SDS011;10709;49.006;12.100;2023-09-19T01:00:01;5.93;;;3.40;;
21101;SDS011;10709;49.006;12.100;2023-09-19T01:02:38;3.60;;;2.92;;
21101;SDS011;10709;49.006;12.100;2023-09-19T01:05:05;3.78;;;2.92;;
21101;SDS011;10709;49.006;12.100;2023-09-19T01:07:32;4.38;;;3.22;;
21101;SDS011;10709;49.006;12.100;2023-09-19T01:10:04;4.45;;;3.38;;
21101;SDS011;10709;49.006;12.100;2023-09-19T01:12:41;6.00;;;3.33;;
21101;SDS011;10709;49.006;12.100;2023-09-19T01:18:03;4.95;;;3.30;;
21101;SDS011;10709;49.006;12.100;2023-09-19T01:20:45;6.68;;;3.00;;
21101;SDS011;10709;49.006;12.100;2023-09-19T01:31:36;3.75;;;2.92;;
21101;SDS011;10709;49.006;12.100;2023-09-19T01:34:04;3.38;;;2.60;;
21101;SDS011;10709;49.006;12.100;2023-09-19T01:36:32;4.63;;;2.83;;
21101;SDS011;10709;49.006;12.100;2023-09-19T01:39:05;6.22;;;3.00;;
21101;SDS011;10709;49.006;12.100;2023-09-19T01:41:46;8.48;;;3.20;;
21101;SDS011;10709;49.006;12.100;2023-09-19T01:44:16;4.97;;;3.05;;
21101;SDS011;10709;49.006;12.100;2023-09-19T01:46:48;7.47;;;3.17;;
21101;SDS011;10709;49.006;12.100;2023-09-19T01:49:22;4.55;;;3.17;;
21101;SDS011;10709;49.006;12.100;2023-09-19T01:52:06;2.90;;;2.60;;
21101;SDS011;10709;49.006;12.100;2023-09-19T01:54:46;4.03;;;2.42;;
21101;SDS011;10709;49.006;12.100;2023-09-19T01:57:22;3.65;;;2.40;;
21101;SDS011;10709;49.006;12.100;2023-09-19T02:00:00;2.42;;;2.10;;
21101;SDS011;10709;49.006;12.100;2023-09-19T02:02:34;3.85;;;2.60;;
21101;SDS011;10709;49.006;12.100;2023-09-19T02:05:04;3.28;;;2.42;;
21101;SDS011;10709;49.006;12.100;2023-09-19T02:07:31;2.72;;;2.38;;
21101;SDS011;10709;49.006;12.100;2023-09-19T02:09:58;2.90;;;2.38;;
21101;SDS011;10709;49.006;12.100;2023-09-19T02:12:31;2.88;;;1.83;;
21101;SDS011;10709;49.006;12.100;2023-09-19T02:14:59;2.55;;;2.05;;
21101;SDS011;10709;49.006;12.100;2023-09-19T02:17:25;3.40;;;2.40;;
21101;SDS011;10709;49.006;12.100;2023-09-19T02:19:53;4.05;;;2.58;;
21101;SDS011;10709;49.006;12.100;2023-09-19T02:22:21;3.15;;;2.30;;
21101;SDS011;10709;49.006;12.100;2023-09-19T02:24:49;3.22;;;2.40;;
21101;SDS011;10709;49.006;12.100;2023-09-19T02:27:16;2.42;;;2.22;;
21101;SDS011;10709;49.006;12.100;2023-09-19T02:29:46;3.47;;;2.45;;
21101;SDS011;10709;49.006;12.100;2023-09-19T02:32:13;2.80;;;2.15;;
21101;SDS011;10709;49.006;12.100;2023-09-19T02:34:39;4.55;;;2.53;;
21101;SDS011;10709;49.006;12.100;2023-09-19T02:37:06;3.40;;;2.33;;
21101;SDS011;10709;49.006;12.100;2023-09-19T02:39:35;4.00;;;2.25;;
21101;SDS011;10709;49.006;12.100;2023-09-19T02:42:02;4.25;;;1.98;;
21101;SDS011;10709;49.006;12.100;2023-09-19T02:44:32;2.30;;;2.05;;
21101;SDS011;10709;49.006;12.100;2023-09-19T02:46:58;2.60;;;2.30;;
21101;SDS011;10709;49.006;12.100;2023-09-19T02:49:25;2.78;;;2.30;;
21101;SDS011;10709;49.006;12.100;2023-09-19T02:51:52;4.53;;;2.78;;
21101;SDS011;10709;49.006;12.100;2023-09-19T02:54:19;2.78;;;2.58;;
21101;SDS011;10709;49.006;12.100;2023-09-19T02:56:45;2.75;;;2.55;;
21101;SDS011;10709;49.006;12.100;2023-09-19T02:59:13;3.05;;;2.30;;
21101;SDS011;10709;49.006;12.100;2023-09-19T03:01:42;4.70;;;2.80;;
21101;SDS011;10709;49.006;12.100;2023-09-19T03:04:09;3.05;;;2.75;;
21101;SDS011;10709;49.006;12.100;2023-09-19T03:06:37;3.30;;;2.60;;
21101;SDS011;10709;49.006;12.100;2023-09-19T03:09:06;3.47;;;2.38;;
21101;SDS011;10709;49.006;12.100;2023-09-19T03:11:39;3.78;;;2.40;;
21101;SDS011;10709;49.006;12.100;2023-09-19T03:14:08;3.50;;;2.70;;
21101;SDS011;10709;49.006;12.100;2023-09-19T03:16:36;3.10;;;2.80;;
21101;SDS011;10709;49.006;12.100;2023-09-19T03:19:03;3.47;;;2.55;;
21101;SDS011;10709;49.006;12.100;2023-09-19T03:21:31;3.25;;;2.35;;
21101;SDS011;10709;49.006;12.100;2023-09-19T03:23:58;5.30;;;2.80;;
21101;SDS011;10709;49.006;12.100;2023-09-19T03:26:24;3.25;;;2.75;;
21101;SDS011;10709;49.006;12.100;2023-09-19T03:28:53;4.03;;;2.80;;
21101;SDS011;10709;49.006;12.100;2023-09-19T03:31:20;3.47;;;2.53;;
21101;SDS011;10709;49.006;12.100;2023-09-19T03:33:47;3.55;;;2.55;;
21101;SDS011;10709;49.006;12.100;2023-09-19T03:36:13;3.75;;;2.75;;
21101;SDS011;10709;49.006;12.100;2023-09-19T03:38:40;4.10;;;2.40;;
21101;SDS011;10709;49.006;12.100;2023-09-19T03:41:06;3.50;;;2.80;;
21101;SDS011;10709;49.006;12.100;2023-09-19T03:43:33;4.70;;;2.63;;
21101;SDS011;10709;49.006;12.100;2023-09-19T03:46:02;3.28;;;2.60;;
21101;SDS011;10709;49.006;12.100;2023-09-19T03:48:31;3.25;;;2.53;;
21101;SDS011;10709;49.006;12.100;2023-09-19T03:50:57;3.42;;;2.90;;
21101;SDS011;10709;49.006;12.100;2023-09-19T03:53:24;3.67;;;2.72;;
21101;SDS011;10709;49.006;12.100;2023-09-19T03:55:51;3.97;;;2.65;;
21101;SDS011;10709;49.006;12.100;2023-09-19T03:58:17;3.53;;;2.70;;
21101;SDS011;10709;49.006;12.100;2023-09-19T04:00:44;2.97;;;2.20;;
21101;SDS011;10709;49.006;12.100;2023-09-19T04:03:11;3.92;;;2.08;;
21101;SDS011;10709;49.006;12.100;2023-09-19T04:05:46;2.85;;;2.33;;
21101;SDS011;10709;49.006;12.100;2023-09-19T04:08:14;3.78;;;2.60;;
21101;SDS011;10709;49.006;12.100;2023-09-19T04:10:43;3.28;;;2.60;;
21101;SDS011;10709;49.006;12.100;2023-09-19T04:13:13;4.05;;;2.00;;
21101;SDS011;10709;49.006;12.100;2023-09-19T04:15:39;3.95;;;2.42;;
21101;SDS011;10709;49.006;12.100;2023-09-19T04:18:07;4.95;;;2.28;;
21101;SDS011;10709;49.006;12.100;2023-09-19T04:20:33;3.03;;;2.33;;
21101;SDS011;10709;49.006;12.100;2023-09-19T04:23:00;2.42;;;2.20;;
21101;SDS011;10709;49.006;12.100;2023-09-19T04:25:26;2.70;;;2.50;;
21101;SDS011;10709;49.006;12.100;2023-09-19T04:27:54;3.85;;;2.40;;
21101;SDS011;10709;49.006;12.100;2023-09-19T04:30:21;4.75;;;2.65;;
21101;SDS011;10709;49.006;12.100;2023-09-19T04:32:47;4.47;;;2.58;;
21101;SDS011;10709;49.006;12.100;2023-09-19T04:35:17;3.58;;;2.30;;
21101;SDS011;10709;49.006;12.100;2023-09-19T04:37:45;3.50;;;2.50;;
21101;SDS011;10709;49.006;12.100;2023-09-19T04:40:12;5.15;;;2.33;;
21101;SDS011;10709;49.006;12.100;2023-09-19T04:42:40;2.58;;;2.28;;
21101;SDS011;10709;49.006;12.100;2023-09-19T04:45:08;3.53;;;2.30;;
21101;SDS011;10709;49.006;12.100;2023-09-19T04:47:36;3.13;;;1.90;;
21101;SDS011;10709;49.006;12.100;2023-09-19T04:50:07;4.03;;;2.65;;
21101;SDS011;10709;49.006;12.100;2023-09-19T04:52:41;5.88;;;2.22;;
21101;SDS011;10709;49.006;12.100;2023-09-19T04:55:09;3.78;;;2.35;;
21101;SDS011;10709;49.006;12.100;2023-09-19T04:57:45;4.70;;;2.45;;
21101;SDS011;10709;49.006;12.100;2023-09-19T05:00:14;4.07;;;2.70;;
21101;SDS011;10709;49.006;12.100;2023-09-19T05:02:43;4.65;;;2.47;;
21101;SDS011;10709;49.006;12.100;2023-09-19T05:05:10;5.35;;;2.70;;
21101;SDS011;10709;49.006;12.100;2023-09-19T05:07:38;5.22;;;2.70;;
21101;SDS011;10709;49.006;12.100;2023-09-19T05:10:05;5.03;;;2.55;;
21101;SDS011;10709;49.006;12.100;2023-09-19T05:12:36;4.32;;;2.45;;
21101;SDS011;10709;49.006;12.100;2023-09-19T05:15:04;2.50;;;2.30;;
21101;SDS011;10709;49.006;12.100;2023-09-19T05:17:33;3.55;;;1.95;;
21101;SDS011;10709;49.006;12.100;2023-09-19T05:20:01;3.25;;;2.30;;
21101;SDS011;10709;49.006;12.100;2023-09-19T05:22:41;4.22;;;2.30;;
21101;SDS011;10709;49.006;12.100;2023-09-19T05:25:10;4.05;;;1.98;;
21101;SDS011;10709;49.006;12.100;2023-09-19T05:27:37;2.00;;;1.80;;
21101;SDS011;10709;49.006;12.100;2023-09-19T05:30:03;3.75;;;1.90;;
21101;SDS011;10709;49.006;12.100;2023-09-19T05:32:32;2.17;;;1.85;;
21101;SDS011;10709;49.006;12.100;2023-09-19T05:34:59;2.22;;;1.90;;
21101;SDS011;10709;49.006;12.100;2023-09-19T05:37:26;3.10;;;1.92;;
21101;SDS011;10709;49.006;12.100;2023-09-19T05:39:53;4.03;;;2.15;;
21101;SDS011;10709;49.006;12.100;2023-09-19T05:42:23;3.22;;;1.95;;
21101;SDS011;10709;49.006;12.100;2023-09-19T05:44:50;5.07;;;1.92;;
21101;SDS011;10709;49.006;12.100;2023-09-19T05:47:16;1.92;;;1.77;;
21101;SDS011;10709;49.006;12.100;2023-09-19T05:49:43;1.70;;;1.30;;
21101;SDS011;10709;49.006;12.100;2023-09-19T05:52:10;2.78;;;2.10;;
21101;SDS011;10709;49.006;12.100;2023-09-19T05:54:37;4.85;;;1.80;;
21101;SDS011;10709;49.006;12.100;2023-09-19T05:57:03;2.38;;;1.70;;
21101;SDS011;10709;49.006;12.100;2023-09-19T05:59:30;4.07;;;2.00;;
21101;SDS011;10709;49.006;12.100;2023-09-19T06:01:57;3.72;;;1.58;;
21101;SDS011;10709;49.006;12.100;2023-09-19T06:04:23;2.85;;;1.92;;
21101;SDS011;10709;49.006;12.100;2023-09-19T06:06:50;2.63;;;1.60;;
21101;SDS011;10709;49.006;12.100;2023-09-19T06:09:17;3.40;;;1.90;;
21101;SDS011;10709;49.006;12.100;2023-09-19T06:11:49;1.60;;;1.50;;
21101;SDS011;10709;49.006;12.100;2023-09-19T06:14:15;1.58;;;1.48;;
21101;SDS011;10709;49.006;12.100;2023-09-19T06:16:44;2.92;;;1.70;;
21101;SDS011;10709;49.006;12.100;2023-09-19T06:19:11;2.83;;;1.63;;
21101;SDS011;10709;49.006;12.100;2023-09-19T06:21:38;3.67;;;1.80;;
21101;SDS011;10709;49.006;12.100;2023-09-19T06:24:05;4.28;;;1.83;;
21101;SDS011;10709;49.006;12.100;2023-09-19T06:26:32;2.85;;;1.63;;
21101;SDS011;10709;49.006;12.100;2023-09-19T06:28:58;1.55;;;1.45;;
21101;SDS011;10709;49.006;12.100;2023-09-19T06:31:26;2.95;;;1.60;;
21101;SDS011;10709;49.006;12.100;2023-09-19T06:33:53;2.97;;;1.70;;
21101;SDS011;10709;49.006;12.100;2023-09-19T06:36:19;2.00;;;1.80;;
21101;SDS011;10709;49.006;12.100;2023-09-19T06:38:46;1.65;;;1.30;;
21101;SDS011;10709;49.006;12.100;2023-09-19T06:41:13;2.95;;;1.33;;
21101;SDS011;10709;49.006;12.100;2023-09-19T06:43:42;3.28;;;1.73;;
21101;SDS011;10709;49.006;12.100;2023-09-19T06:46:09;3.83;;;1.52;;
21101;SDS011;10709;49.006;12.100;2023-09-19T06:48:36;3.05;;;1.60;;
21101;SDS011;10709;49.006;12.100;2023-09-19T06:51:02;1.58;;;1.40;;
21101;SDS011;10709;49.006;12.100;2023-09-19T06:53:32;2.35;;;1.65;;
21101;SDS011;10709;49.006;12.100;2023-09-19T06:55:59;2.28;;;1.58;;
21101;SDS011;10709;49.006;12.100;2023-09-19T06:58:25;1.85;;;1.50;;
21101;SDS011;10709;49.006;12.100;2023-09-19T07:00:52;1.60;;;1.50;;
21101;SDS011;10709;49.006;12.100;2023-09-19T07:03:20;3.33;;;1.77;;
21101;SDS011;10709;49.006;12.100;2023-09-19T07:05:48;2.45;;;1.30;;
21101;SDS011;10709;49.006;12.100;2023-09-19T07:08:15;3.83;;;1.30;;
21101;SDS011;10709;49.006;12.100;2023-09-19T07:10:42;3.83;;;1.70;;
21101;SDS011;10709;49.006;12.100;2023-09-19T07:13:18;3.17;;;2.03;;
21101;SDS011;10709;49.006;12.100;2023-09-19T07:15:45;2.78;;;1.50;;
21101;SDS011;10709;49.006;12.100;2023-09-19T07:18:17;1.95;;;1.65;;
21101;SDS011;10709;49.006;12.100;2023-09-19T07:20:44;1.70;;;1.60;;
21101;SDS011;10709;49.006;12.100;2023-09-19T07:23:20;5.53;;;1.77;;
21101;SDS011;10709;49.006;12.100;2023-09-19T07:25:56;3.28;;;1.80;;
21101;SDS011;10709;49.006;12.100;2023-09-19T07:28:24;2.10;;;1.52;;
21101;SDS011;10709;49.006;12.100;2023-09-19T07:30:50;3.03;;;1.50;;
21101;SDS011;10709;49.006;12.100;2023-09-19T07:33:17;2.13;;;1.60;;
21101;SDS011;10709;49.006;12.100;2023-09-19T07:35:47;3.33;;;1.90;;
21101;SDS011;10709;49.006;12.100;2023-09-19T07:38:14;2.78;;;1.65;;
21101;SDS011;10709;49.006;12.100;2023-09-19T07:40:41;2.58;;;1.80;;
21101;SDS011;10709;49.006;12.100;2023-09-19T07:43:07;1.55;;;1.30;;
21101;SDS011;10709;49.006;12.100;2023-09-19T07:45:34;2.47;;;1.70;;
21101;SDS011;10709;49.006;12.100;2023-09-19T07:48:02;2.45;;;1.80;;
21101;SDS011;10709;49.006;12.100;2023-09-19T07:50:33;2.28;;;1.33;;
21101;SDS011;10709;49.006;12.100;2023-09-19T07:53:03;2.75;;;1.80;;
21101;SDS011;10709;49.006;12.100;2023-09-19T07:55:31;2.78;;;1.25;;
21101;SDS011;10709;49.006;12.100;2023-09-19T07:58:00;1.70;;;1.58;;
21101;SDS011;10709;49.006;12.100;2023-09-19T08:00:28;2.17;;;1.77;;
21101;SDS011;10709;49.006;12.100;2023-09-19T08:02:55;1.63;;;1.52;;
21101;SDS011;10709;49.006;12.100;2023-09-19T08:05:29;1.75;;;1.58;;
21101;SDS011;10709;49.006;12.100;2023-09-19T08:07:59;2.72;;;1.60;;
21101;SDS011;10709;49.006;12.100;2023-09-19T08:10:29;1.70;;;1.20;;
21101;SDS011;10709;49.006;12.100;2023-09-19T08:13:01;2.25;;;1.73;;
21101;SDS011;10709;49.006;12.100;2023-09-19T08:15:28;3.17;;;1.98;;
21101;SDS011;10709;49.006;12.100;2023-09-19T08:17:55;3.63;;;1.70;;
21101;SDS011;10709;49.006;12.100;2023-09-19T08:20:22;1.73;;;1.60;;
21101;SDS011;10709;49.006;12.100;2023-09-19T08:22:49;1.92;;;1.80;;
21101;SDS011;10709;49.006;12.100;2023-09-19T08:25:18;3.88;;;1.77;;
21101;SDS011;10709;49.006;12.100;2023-09-19T08:27:45;4.20;;;1.70;;
21101;SDS011;10709;49.006;12.100;2023-09-19T08:30:16;1.70;;;1.55;;
21101;SDS011;10709;49.006;12.100;2023-09-19T08:32:44;2.10;;;1.55;;
21101;SDS011;10709;49.006;12.100;2023-09-19T08:35:12;2.97;;;1.70;;
21101;SDS011;10709;49.006;12.100;2023-09-19T08:37:39;1.90;;;1.50;;
21101;SDS011;10709;49.006;12.100;2023-09-19T08:40:06;3.05;;;1.15;;
21101;SDS011;10709;49.006;12.100;2023-09-19T08:42:51;2.22;;;1.58;;
21101;SDS011;10709;49.006;12.100;2023-09-19T08:45:22;1.65;;;1.55;;
21101;SDS011;10709;49.006;12.100;2023-09-19T08:47:53;2.97;;;1.50;;
21101;SDS011;10709;49.006;12.100;2023-09-19T08:50:29;2.05;;;1.50;;
21101;SDS011;10709;49.006;12.100;2023-09-19T08:52:58;2.60;;;1.60;;
21101;SDS011;10709;49.006;12.100;2023-09-19T08:55:29;3.13;;;1.70;;
21101;SDS011;10709;49.006;12.100;2023-09-19T08:58:02;1.42;;;1.00;;
21101;SDS011;10709;49.006;12.100;2023-09-19T09:00:31;3.20;;;1.60;;
21101;SDS011;10709;49.006;12.100;2023-09-19T09:02:59;1.83;;;1.60;;
21101;SDS011;10709;49.006;12.100;2023-09-19T09:05:29;1.52;;;1.40;;
21101;SDS011;10709;49.006;12.100;2023-09-19T09:07:58;3.20;;;1.60;;
21101;SDS011;10709;49.006;12.100;2023-09-19T09:10:26;1.80;;;1.60;;
21101;SDS011;10709;49.006;12.100;2023-09-19T09:12:53;3.08;;;1.63;;
21101;SDS011;10709;49.006;12.100;2023-09-19T09:15:21;2.90;;;1.77;;
21101;SDS011;10709;49.006;12.100;2023-09-19T09:17:50;2.40;;;1.50;;
21101;SDS011;10709;49.006;12.100;2023-09-19T09:20:19;2.50;;;1.60;;
21101;SDS011;10709;49.006;12.100;2023-09-19T09:22:56;2.45;;;1.80;;
21101;SDS011;10709;49.006;12.100;2023-09-19T09:28:26;2.10;;;1.88;;
21101;SDS011;10709;49.006;12.100;2023-09-19T09:30:57;5.13;;;1.83;;
21101;SDS011;10709;49.006;12.100;2023-09-19T09:33:24;3.53;;;1.55;;
21101;SDS011;10709;49.006;12.100;2023-09-19T09:35:58;3.28;;;1.50;;
21101;SDS011;10709;49.006;12.100;2023-09-19T09:38:50;2.15;;;1.77;;
21101;SDS011;10709;49.006;12.100;2023-09-19T09:41:16;1.52;;;1.42;;
21101;SDS011;10709;49.006;12.100;2023-09-19T09:43:53;1.65;;;1.45;;
21101;SDS011;10709;49.006;12.100;2023-09-19T09:46:20;4.85;;;1.50;;
21101;SDS011;10709;49.006;12.100;2023-09-19T09:51:40;1.77;;;1.30;;
21101;SDS011;10709;49.006;12.100;2023-09-19T09:54:16;1.75;;;1.50;;
21101;SDS011;10709;49.006;12.100;2023-09-19T09:56:52;2.33;;;1.25;;
21101;SDS011;10709;49.006;12.100;2023-09-19T09:59:43;4.25;;;1.40;;
21101;SDS011;10709;49.006;12.100;2023-09-19T10:02:20;1.42;;;1.30;;
21101;SDS011;10709;49.006;12.100;2023-09-19T10:04:56;2.15;;;1.40;;
21101;SDS011;10709;49.006;12.100;2023-09-19T10:07:42;2.25;;;1.30;;
21101;SDS011;10709;49.006;12.100;2023-09-19T10:10:37;1.55;;;1.30;;
21101;SDS011;10709;49.006;12.100;2023-09-19T10:13:11;1.70;;;1.30;;
21101;SDS011;10709;49.006;12.100;2023-09-19T10:15:40;2.55;;;1.70;;
21101;SDS011;10709;49.006;12.100;2023-09-19T10:18:12;2.58;;;1.55;;
21101;SDS011;10709;49.006;12.100;2023-09-19T10:20:44;1.88;;;1.40;;
21101;SDS011;10709;49.006;12.100;2023-09-19T10:23:12;2.20;;;1.75;;
21101;SDS011;10709;49.006;12.100;2023-09-19T10:25:43;1.70;;;1.52;;
21101;SDS011;10709;49.006;12.100;2023-09-19T10:28:14;1.90;;;1.60;;
21101;SDS011;10709;49.006;12.100;2023-09-19T10:30:42;2.17;;;1.40;;
21101;SDS011;10709;49.006;12.100;2023-09-19T10:33:12;2.30;;;1.80;;
21101;SDS011;10709;49.006;12.100;2023-09-19T10:35:44;1.60;;;1.50;;
21101;SDS011;10709;49.006;12.100;2023-09-19T10:38:13;3.65;;;1.65;;
21101;SDS011;10709;49.006;12.100;2023-09-19T10:40:47;2.45;;;1.60;;
21101;SDS011;10709;49.006;12.100;2023-09-19T10:43:18;3.67;;;1.50;;
21101;SDS011;10709;49.006;12.100;2023-09-19T10:45:48;1.73;;;1.63;;
21101;SDS011;10709;49.006;12.100;2023-09-19T10:48:19;2.15;;;1.50;;
21101;SDS011;10709;49.006;12.100;2023-09-19T10:50:48;1.90;;;1.80;;
21101;SDS011;10709;49.006;12.100;2023-09-19T10:53:18;1.73;;;1.63;;
21101;SDS011;10709;49.006;12.100;2023-09-19T10:55:52;2.17;;;1.40;;
21101;SDS011;10709;49.006;12.100;2023-09-19T10:58:27;3.33;;;1.85;;
21101;SDS011;10709;49.006;12.100;2023-09-19T11:01:04;1.77;;;1.67;;
21101;SDS011;10709;49.006;12.100;2023-09-19T11:03:33;2.38;;;1.80;;
21101;SDS011;10709;49.006;12.100;2023-09-19T11:30:45;1.77;;;1.67;;
21101;SDS011;10709;49.006;12.100;2023-09-19T11:33:24;2.55;;;1.80;;
21101;SDS011;10709;49.006;12.100;2023-09-19T11:43:48;2.92;;;2.28;;
21101;SDS011;10709;49.006;12.100;2023-09-19T11:46:20;1.80;;;1.70;;
21101;SDS011;10709;49.006;12.100;2023-09-19T11:48:50;2.50;;;1.88;;
21101;SDS011;10709;49.006;12.100;2023-09-19T11:51:19;2.10;;;1.90;;
21101;SDS011;10709;49.006;12.100;2023-09-19T11:53:56;3.95;;;2.17;;
21101;SDS011;10709;49.006;12.100;2023-09-19T11:56:26;2.20;;;2.00;;
21101;SDS011;10709;49.006;12.100;2023-09-19T11:58:56;2.00;;;1.80;;
21101;SDS011;10709;49.006;12.100;2023-09-19T12:01:32;2.25;;;2.00;;
21101;SDS011;10709;49.006;12.100;2023-09-19T12:04:03;4.05;;;2.15;;
21101;SDS011;10709;49.006;12.100;2023-09-19T12:06:33;2.15;;;1.70;;
21101;SDS011;10709;49.006;12.100;2023-09-19T12:09:02;3.67;;;1.88;;
21101;SDS011;10709;49.006;12.100;2023-09-19T12:11:33;1.65;;;1.55;;
21101;SDS011;10709;49.006;12.100;2023-09-19T12:14:09;2.95;;;1.83;;
21101;SDS011;10709;49.006;12.100;2023-09-19T12:16:36;1.95;;;1.65;;
21101;SDS011;10709;49.006;12.100;2023-09-19T12:19:19;2.65;;;1.48;;
21101;SDS011;10709;49.006;12.100;2023-09-19T12:21:54;1.75;;;1.40;;
21101;SDS011;10709;49.006;12.100;2023-09-19T12:24:35;1.70;;;1.60;;
21101;SDS011;10709;49.006;12.100;2023-09-19T12:27:05;1.75;;;1.65;;
21101;SDS011;10709;49.006;12.100;2023-09-19T12:32:10;1.63;;;1.52;;
21101;SDS011;10709;49.006;12.100;2023-09-19T12:34:37;2.10;;;1.50;;
21101;SDS011;10709;49.006;12.100;2023-09-19T12:37:15;4.45;;;1.60;;
21101;SDS011;10709;49.006;12.100;2023-09-19T12:39:48;2.72;;;1.45;;
21101;SDS011;10709;49.006;12.100;2023-09-19T12:42:18;4.78;;;1.65;;
21101;SDS011;10709;49.006;12.100;2023-09-19T12:44:46;1.52;;;1.35;;
21101;SDS011;10709;49.006;12.100;2023-09-19T12:47:17;1.65;;;1.50;;
21101;SDS011;10709;49.006;12.100;2023-09-19T12:52:36;1.88;;;1.45;;
21101;SDS011;10709;49.006;12.100;2023-09-19T12:55:04;1.65;;;1.45;;
21101;SDS011;10709;49.006;12.100;2023-09-19T12:57:33;1.60;;;1.50;;
21101;SDS011;10709;49.006;12.100;2023-09-19T13:00:03;3.50;;;1.85;;
21101;SDS011;10709;49.006;12.100;2023-09-19T13:02:37;2.03;;;1.60;;
21101;SDS011;10709;49.006;12.100;2023-09-19T13:05:04;3.22;;;1.75;;
21101;SDS011;10709;49.006;12.100;2023-09-19T13:07:39;2.42;;;1.50;;
21101;SDS011;10709;49.006;12.100;2023-09-19T13:10:10;2.08;;;1.58;;
21101;SDS011;10709;49.006;12.100;2023-09-19T13:12:37;2.20;;;1.70;;
21101;SDS011;10709;49.006;12.100;2023-09-19T13:15:08;1.83;;;1.60;;
21101;SDS011;10709;49.006;12.100;2023-09-19T13:17:43;2.30;;;1.42;;
21101;SDS011;10709;49.006;12.100;2023-09-19T13:20:23;1.75;;;1.40;;
21101;SDS011;10709;49.006;12.100;2023-09-19T13:22:58;1.67;;;1.58;;
21101;SDS011;10709;49.006;12.100;2023-09-19T13:25:26;1.75;;;1.48;;
21101;SDS011;10709;49.006;12.100;2023-09-19T13:27:56;1.58;;;1.40;;
21101;SDS011;10709;49.006;12.100;2023-09-19T13:30:24;1.60;;;1.50;;
21101;SDS011;10709;49.006;12.100;2023-09-19T13:33:08;2.45;;;1.52;;
21101;SDS011;10709;49.006;12.100;2023-09-19T13:35:40;4.80;;;1.42;;
21101;SDS011;10709;49.006;12.100;2023-09-19T13:38:27;2.08;;;1.85;;
21101;SDS011;10709;49.006;12.100;2023-09-19T13:40:56;2.13;;;1.70;;
21101;SDS011;10709;49.006;12.100;2023-09-19T13:43:25;2.50;;;1.60;;
21101;SDS011;10709;49.006;12.100;2023-09-19T13:45:52;1.95;;;1.35;;
21101;SDS011;10709;49.006;12.100;2023-09-19T13:48:20;2.33;;;1.60;;
21101;SDS011;10709;49.006;12.100;2023-09-19T13:50:48;2.05;;;1.70;;
21101;SDS011;10709;49.006;12.100;2023-09-19T13:53:15;2.75;;;1.63;;
21101;SDS011;10709;49.006;12.100;2023-09-19T13:55:43;3.80;;;1.90;;
21101;SDS011;10709;49.006;12.100;2023-09-19T13:58:10;2.00;;;1.90;;
21101;SDS011;10709;49.006;12.100;2023-09-19T14:00:38;2.03;;;1.60;;
21101;SDS011;10709;49.006;12.100;2023-09-19T14:03:05;2.15;;;1.73;;
21101;SDS011;10709;49.006;12.100;2023-09-19T14:05:32;1.30;;;1.20;;
21101;SDS011;10709;49.006;12.100;2023-09-19T14:07:59;4.03;;;1.75;;
21101;SDS011;10709;49.006;12.100;2023-09-19T14:10:26;1.67;;;1.55;;
21101;SDS011;10709;49.006;12.100;2023-09-19T14:12:54;1.60;;;1.30;;
21101;SDS011;10709;49.006;12.100;2023-09-19T14:15:20;1.75;;;1.52;;
21101;SDS011;10709;49.006;12.100;2023-09-19T14:17:58;1.40;;;1.30;;
21101;SDS011;10709;49.006;12.100;2023-09-19T14:20:27;1.60;;;1.30;;
21101;SDS011;10709;49.006;12.100;2023-09-19T14:22:53;2.60;;;1.40;;
21101;SDS011;10709;49.006;12.100;2023-09-19T14:25:20;2.90;;;1.80;;
21101;SDS011;10709;49.006;12.100;2023-09-19T14:27:49;1.73;;;1.63;;
21101;SDS011;10709;49.006;12.100;2023-09-19T14:30:16;1.80;;;1.50;;
21101;SDS011;10709;49.006;12.100;2023-09-19T14:32:42;2.58;;;1.58;;
21101;SDS011;10709;49.006;12.100;2023-09-19T14:35:10;1.92;;;1.60;;
21101;SDS011;10709;49.006;12.100;2023-09-19T14:37:37;2.05;;;1.60;;
21101;SDS011;10709;49.006;12.100;2023-09-19T14:40:05;2.38;;;1.50;;
21101;SDS011;10709;49.006;12.100;2023-09-19T14:42:40;2.00;;;1.83;;
21101;SDS011;10709;49.006;12.100;2023-09-19T14:45:07;2.65;;;1.67;;
21101;SDS011;10709;49.006;12.100;2023-09-19T14:47:33;1.90;;;1.75;;
21101;SDS011;10709;49.006;12.100;2023-09-19T14:50:01;2.35;;;2.05;;
21101;SDS011;10709;49.006;12.100;2023-09-19T14:52:33;2.00;;;1.80;;
21101;SDS011;10709;49.006;12.100;2023-09-19T14:55:00;2.65;;;1.50;;
21101;SDS011;10709;49.006;12.100;2023-09-19T14:57:28;3.58;;;1.67;;
21101;SDS011;10709;49.006;12.100;2023-09-19T14:59:55;2.30;;;1.95;;
21101;SDS011;10709;49.006;12.100;2023-09-19T15:02:23;1.55;;;1.45;;
21101;SDS011;10709;49.006;12.100;2023-09-19T15:04:51;2.08;;;1.90;;
21101;SDS011;10709;49.006;12.100;2023-09-19T15:07:19;2.60;;;1.70;;
21101;SDS011;10709;49.006;12.100;2023-09-19T15:09:45;2.17;;;1.80;;
21101;SDS011;10709;49.006;12.100;2023-09-19T15:12:12;2.10;;;1.75;;
21101;SDS011;10709;49.006;12.100;2023-09-19T15:14:41;1.30;;;1.20;;
21101;SDS011;10709;49.006;12.100;2023-09-19T15:17:08;1.83;;;1.63;;
21101;SDS011;10709;49.006;12.100;2023-09-19T15:19:35;1.88;;;1.75;;
21101;SDS011;10709;49.006;12.100;2023-09-19T15:22:01;1.75;;;1.60;;
21101;SDS011;10709;49.006;12.100;2023-09-19T15:24:28;2.47;;;1.70;;
21101;SDS011;10709;49.006;12.100;2023-09-19T15:26:55;3.25;;;1.80;;
21101;SDS011;10709;49.006;12.100;2023-09-19T15:29:21;1.65;;;1.55;;
21101;SDS011;10709;49.006;12.100;2023-09-19T15:31:48;2.92;;;1.85;;
21101;SDS011;10709;49.006;12.100;2023-09-19T15:34:15;1.70;;;1.60;;
21101;SDS011;10709;49.006;12.100;2023-09-19T15:36:42;3.20;;;1.80;;
21101;SDS011;10709;49.006;12.100;2023-09-19T15:39:10;1.75;;;1.60;;
21101;SDS011;10709;49.006;12.100;2023-09-19T15:41:38;2.15;;;1.70;;